createdAt,value
2023-01-25T00:01:54.601Z,8.90
2023-01-25T00:04:24.246Z,8.80
2023-01-25T00:06:53.091Z,8.80
2023-01-25T00:09:22.384Z,8.80
2023-01-25T00:11:53.237Z,8.80
2023-01-25T00:14:21.938Z,8.80
2023-01-25T00:16:50.748Z,8.80
2023-01-25T00:19:19.691Z,8.80
2023-01-25T00:21:49.223Z,8.80
2023-01-25T00:24:18.267Z,8.80
2023-01-25T00:26:46.992Z,8.80
2023-01-25T00:29:17.178Z,8.80
2023-01-25T00:31:56.793Z,8.80
2023-01-25T00:34:45.000Z,8.70
2023-01-25T00:37:20.641Z,8.70
2023-01-25T00:39:49.431Z,8.70
2023-01-25T00:42:19.723Z,8.70
2023-01-25T00:44:50.194Z,8.70
2023-01-25T00:47:19.482Z,8.80
2023-01-25T00:49:48.705Z,8.80
2023-01-25T00:52:18.252Z,8.80
2023-01-25T00:54:46.924Z,8.80
2023-01-25T00:57:15.815Z,8.80
2023-01-25T00:59:46.025Z,8.70
2023-01-25T01:02:16.086Z,8.70
2023-01-25T01:04:44.871Z,8.60
2023-01-25T01:07:14.959Z,8.60
2023-01-25T01:09:43.849Z,8.60
2023-01-25T01:12:12.576Z,8.60
2023-01-25T01:14:41.335Z,8.70
2023-01-25T01:17:10.006Z,8.70
2023-01-25T01:19:40.183Z,8.70
2023-01-25T01:22:09.172Z,8.60
2023-01-25T01:24:37.865Z,8.60
2023-01-25T01:27:06.673Z,8.60
2023-01-25T01:29:35.379Z,8.60
2023-01-25T01:32:04.258Z,8.60
2023-01-25T01:34:33.185Z,8.60
2023-01-25T01:37:03.344Z,8.60
2023-01-25T01:39:32.154Z,8.60
2023-01-25T01:42:00.836Z,8.60
2023-01-25T01:44:49.722Z,8.60
2023-01-25T01:47:23.554Z,8.60
2023-01-25T01:49:56.092Z,8.60
2023-01-25T01:52:32.541Z,8.60
2023-01-25T01:55:04.672Z,8.70
2023-01-25T01:57:38.302Z,8.70
2023-01-25T02:00:11.467Z,8.70
2023-01-25T02:02:40.437Z,8.70
2023-01-25T02:05:14.196Z,8.70
2023-01-25T02:07:48.181Z,8.80
2023-01-25T02:10:17.625Z,8.80
2023-01-25T02:12:46.723Z,8.80
2023-01-25T02:15:19.817Z,8.80
2023-01-25T02:17:50.020Z,8.70
2023-01-25T02:20:26.016Z,8.70
2023-01-25T02:23:01.514Z,8.70
2023-01-25T02:25:31.932Z,8.70
2023-01-25T02:28:05.689Z,8.70
2023-01-25T02:30:35.068Z,8.70
2023-01-25T02:33:03.966Z,8.70
2023-01-25T02:35:44.948Z,8.70
2023-01-25T02:38:15.698Z,8.70
2023-01-25T02:40:48.793Z,8.70
2023-01-25T02:43:19.962Z,8.70
2023-01-25T02:45:53.646Z,8.70
2023-01-25T02:48:22.325Z,8.70
2023-01-25T02:50:51.067Z,8.70
2023-01-25T02:53:19.734Z,8.80
2023-01-25T02:55:49.784Z,8.70
2023-01-25T02:58:18.423Z,8.70
2023-01-25T03:00:47.147Z,8.60
2023-01-25T03:03:15.871Z,8.60
2023-01-25T03:05:45.625Z,8.60
2023-01-25T03:08:14.455Z,8.60
2023-01-25T03:10:43.191Z,8.60
2023-01-25T03:13:13.256Z,8.60
2023-01-25T03:15:41.991Z,8.50
2023-01-25T03:18:10.660Z,8.50
2023-01-25T03:20:39.481Z,8.60
2023-01-25T03:23:08.286Z,8.60
2023-01-25T03:25:37.010Z,8.60
2023-01-25T03:28:05.796Z,8.60
2023-01-25T03:30:35.858Z,8.70
2023-01-25T03:33:04.707Z,8.70
2023-01-25T03:35:33.586Z,8.70
2023-01-25T03:38:02.217Z,8.70
2023-01-25T03:40:30.955Z,8.80
2023-01-25T03:42:59.672Z,8.80
2023-01-25T03:45:28.469Z,8.70
2023-01-25T03:47:58.609Z,8.80
2023-01-25T03:50:27.391Z,8.80
2023-01-25T03:53:29.686Z,8.70
2023-01-25T03:56:00.109Z,8.70
2023-01-25T03:58:29.494Z,8.70
2023-01-25T04:01:00.232Z,8.80
2023-01-25T04:03:31.470Z,8.80
2023-01-25T04:06:00.977Z,8.90
2023-01-25T04:08:29.691Z,8.90
2023-01-25T04:11:04.235Z,8.80
2023-01-25T04:13:35.188Z,8.90
2023-01-25T04:16:04.163Z,8.80
2023-01-25T04:18:34.517Z,8.90
2023-01-25T04:21:03.325Z,8.80
2023-01-25T04:23:32.715Z,8.80
2023-01-25T04:26:05.209Z,8.70
2023-01-25T04:28:34.955Z,8.80
2023-01-25T04:31:06.111Z,8.70
2023-01-25T04:33:36.623Z,8.70
2023-01-25T04:36:05.978Z,8.60
2023-01-25T04:38:34.746Z,8.60
2023-01-25T04:41:05.332Z,8.60
2023-01-25T04:43:34.090Z,8.60
2023-01-25T04:46:03.693Z,8.60
2023-01-25T04:48:33.213Z,8.60
2023-01-25T04:51:03.343Z,8.60
2023-01-25T04:53:32.066Z,8.60
2023-01-25T04:56:00.881Z,8.60
2023-01-25T04:58:29.585Z,8.70
2023-01-25T05:01:02.770Z,8.60
2023-01-25T05:03:31.845Z,8.60
2023-01-25T05:06:01.972Z,8.70
2023-01-25T05:08:30.846Z,8.80
2023-01-25T05:10:59.701Z,8.80
2023-01-25T05:13:28.479Z,8.80
2023-01-25T05:15:57.801Z,8.70
2023-01-25T05:18:31.081Z,8.80
2023-01-25T05:21:30.169Z,8.80
2023-01-25T05:23:59.120Z,8.90
2023-01-25T05:26:47.352Z,8.80
2023-01-25T05:29:16.039Z,8.80
2023-01-25T05:31:44.749Z,8.80
2023-01-25T05:34:13.563Z,8.80
2023-01-25T05:36:43.821Z,8.70
2023-01-25T05:39:12.920Z,8.70
2023-01-25T05:41:41.642Z,8.70
2023-01-25T05:44:10.513Z,8.70
2023-01-25T05:46:39.372Z,8.70
2023-01-25T05:49:08.273Z,8.70
2023-01-25T05:51:38.294Z,8.80
2023-01-25T05:54:10.810Z,8.80
2023-01-25T05:56:39.464Z,8.70
2023-01-25T05:59:08.227Z,8.70
2023-01-25T06:01:36.886Z,8.70
2023-01-25T06:04:06.178Z,8.70
2023-01-25T06:06:35.006Z,8.70
2023-01-25T06:09:03.809Z,8.60
2023-01-25T06:11:33.988Z,8.60
2023-01-25T06:14:02.815Z,8.80
2023-01-25T06:16:31.712Z,8.80
2023-01-25T06:19:00.422Z,8.70
2023-01-25T06:21:31.275Z,8.70
2023-01-25T06:23:59.948Z,8.70
2023-01-25T06:26:28.772Z,8.80
2023-01-25T06:28:58.952Z,8.90
2023-01-25T06:31:27.836Z,9.00
2023-01-25T06:33:59.234Z,9.00
2023-01-25T06:36:28.656Z,9.00
2023-01-25T06:38:57.414Z,9.10
2023-01-25T06:41:26.494Z,9.00
2023-01-25T06:43:55.947Z,9.00
2023-01-25T06:46:26.230Z,9.00
2023-01-25T06:48:55.065Z,9.10
2023-01-25T06:51:23.645Z,9.10
2023-01-25T06:53:52.436Z,9.00
2023-01-25T06:56:22.917Z,9.00
2023-01-25T06:58:52.131Z,9.00
2023-01-25T07:01:22.577Z,9.10
2023-01-25T07:03:55.605Z,9.10
2023-01-25T07:06:25.047Z,9.10
2023-01-25T07:08:58.292Z,9.10
2023-01-25T07:11:27.005Z,9.10
2023-01-25T07:13:55.744Z,9.00
2023-01-25T07:16:24.501Z,9.00
2023-01-25T07:18:55.691Z,9.00
2023-01-25T07:21:25.094Z,9.20
2023-01-25T07:23:54.269Z,9.30
2023-01-25T07:26:25.504Z,9.30
2023-01-25T07:28:54.855Z,9.30
2023-01-25T07:31:23.993Z,9.30
2023-01-25T07:33:55.423Z,9.30
2023-01-25T07:36:24.495Z,9.20
2023-01-25T07:38:55.020Z,9.30
2023-01-25T07:41:24.773Z,9.20
2023-01-25T07:43:53.926Z,9.20
2023-01-25T07:46:23.728Z,9.20
2023-01-25T07:48:55.761Z,9.20
2023-01-25T07:51:26.625Z,9.20
2023-01-25T07:53:56.910Z,9.30
2023-01-25T07:56:27.217Z,9.20
2023-01-25T07:58:56.677Z,9.20
2023-01-25T08:01:27.501Z,9.30
2023-01-25T08:03:58.078Z,9.40
2023-01-25T08:06:31.174Z,9.40
2023-01-25T08:09:01.169Z,9.30
2023-01-25T08:11:31.132Z,9.30
2023-01-25T08:14:02.084Z,9.40
2023-01-25T08:16:32.735Z,9.30
2023-01-25T08:19:04.113Z,9.30
2023-01-25T08:21:34.439Z,9.30
2023-01-25T08:24:05.672Z,9.30
2023-01-25T08:26:34.963Z,9.40
2023-01-25T08:29:04.171Z,9.50
2023-01-25T08:31:34.507Z,9.60
2023-01-25T08:34:05.239Z,9.60
2023-01-25T08:36:34.366Z,9.60
2023-01-25T08:39:05.721Z,9.50
2023-01-25T08:41:35.633Z,9.60
2023-01-25T08:44:04.644Z,9.70
2023-01-25T08:46:34.824Z,9.70
2023-01-25T08:49:05.698Z,9.70
2023-01-25T08:51:34.843Z,9.80
2023-01-25T08:54:04.681Z,9.90
2023-01-25T08:56:33.486Z,10.00
2023-01-25T08:59:02.257Z,10.00
2023-01-25T09:01:30.951Z,10.00
2023-01-25T09:03:59.971Z,10.10
2023-01-25T09:06:30.156Z,10.10
2023-01-25T09:09:00.299Z,10.10
2023-01-25T09:11:29.115Z,10.20
2023-01-25T09:13:57.758Z,10.10
2023-01-25T09:16:30.613Z,10.20
2023-01-25T09:19:00.168Z,10.20
2023-01-25T09:21:30.226Z,10.20
2023-01-25T09:24:07.919Z,10.30
2023-01-25T09:26:39.647Z,10.30
2023-01-25T09:29:09.260Z,10.30
2023-01-25T09:31:41.087Z,10.20
2023-01-25T09:34:10.073Z,10.10
2023-01-25T09:36:40.320Z,10.10
2023-01-25T09:39:12.234Z,10.00
2023-01-25T09:42:15.461Z,10.10
2023-01-25T09:45:07.245Z,10.10
2023-01-25T09:47:43.608Z,10.10
2023-01-25T09:50:36.158Z,10.30
2023-01-25T09:53:21.552Z,10.30
2023-01-25T09:55:54.160Z,10.30
2023-01-25T09:58:29.189Z,10.20
2023-01-25T10:01:14.576Z,10.20
2023-01-25T10:03:51.452Z,10.30
2023-01-25T10:06:24.932Z,10.30
2023-01-25T10:09:01.873Z,10.30
2023-01-25T10:11:33.185Z,10.40
2023-01-25T10:14:02.208Z,10.40
2023-01-25T10:16:38.793Z,10.40
2023-01-25T10:19:17.134Z,10.50
2023-01-25T10:21:50.688Z,10.50
2023-01-25T10:24:38.530Z,10.40
2023-01-25T10:27:18.097Z,10.40
2023-01-25T10:29:48.592Z,10.30
2023-01-25T10:32:21.323Z,10.40
2023-01-25T10:34:56.819Z,10.30
2023-01-25T10:37:29.281Z,10.40
2023-01-25T10:40:05.406Z,10.40
2023-01-25T10:42:40.906Z,10.30
2023-01-25T10:45:13.639Z,10.40
2023-01-25T10:47:44.406Z,10.50
2023-01-25T10:50:44.060Z,10.50
2023-01-25T10:53:24.863Z,10.60
2023-01-25T10:56:05.095Z,10.60
2023-01-25T10:58:36.436Z,10.60
2023-01-25T11:01:08.196Z,10.60
2023-01-25T11:03:39.439Z,10.50
2023-01-25T11:06:09.724Z,10.40
2023-01-25T11:08:39.383Z,10.40
2023-01-25T11:11:33.217Z,10.30
2023-01-25T11:14:02.121Z,10.20
2023-01-25T11:16:33.819Z,10.30
2023-01-25T11:19:04.538Z,10.30
2023-01-25T11:21:34.878Z,10.30
2023-01-25T11:24:18.722Z,10.20
2023-01-25T11:26:48.951Z,10.10
2023-01-25T11:29:19.445Z,10.10
2023-01-25T11:31:50.297Z,10.10
2023-01-25T11:34:21.237Z,10.20
2023-01-25T11:37:02.094Z,10.10
2023-01-25T11:39:48.866Z,10.20
2023-01-25T11:42:30.384Z,10.20
2023-01-25T11:45:25.391Z,10.20
2023-01-25T11:48:08.398Z,10.20
2023-01-25T11:50:42.267Z,10.20
2023-01-25T11:53:34.816Z,10.20
2023-01-25T11:56:14.641Z,10.10
2023-01-25T11:59:09.861Z,10.20
2023-01-25T12:01:48.303Z,10.20
2023-01-25T12:04:58.834Z,10.20
2023-01-25T12:07:40.946Z,10.10
2023-01-25T12:10:27.171Z,10.00
2023-01-25T12:13:03.466Z,10.00
2023-01-25T12:15:55.578Z,10.10
2023-01-25T12:19:03.220Z,10.00
2023-01-25T12:21:44.987Z,9.90
2023-01-25T12:24:26.985Z,10.00
2023-01-25T12:27:07.241Z,10.00
2023-01-25T12:29:40.144Z,10.00
2023-01-25T12:32:19.045Z,9.90
2023-01-25T12:34:52.449Z,9.80
2023-01-25T12:37:25.889Z,9.90
2023-01-25T12:39:59.732Z,9.80
2023-01-25T12:42:36.302Z,9.90
2023-01-25T12:45:12.729Z,9.80
2023-01-25T12:47:48.537Z,9.90
2023-01-25T12:50:21.503Z,9.90
2023-01-25T12:52:54.189Z,9.90
2023-01-25T12:55:23.067Z,9.90
2023-01-25T12:57:59.836Z,9.90
2023-01-25T13:00:36.872Z,9.90
2023-01-25T13:03:22.784Z,9.90
2023-01-25T13:05:57.879Z,9.90
2023-01-25T13:08:39.314Z,10.00
2023-01-25T13:11:16.041Z,9.90
2023-01-25T13:13:45.013Z,9.90
2023-01-25T13:16:36.275Z,9.90
2023-01-25T13:19:18.444Z,10.00
2023-01-25T13:21:49.047Z,10.00
2023-01-25T13:24:20.665Z,10.00
2023-01-25T13:27:08.679Z,10.00
2023-01-25T13:29:59.112Z,10.00
2023-01-25T13:33:07.520Z,10.00
2023-01-25T13:35:43.002Z,10.00
2023-01-25T13:38:32.238Z,10.00
2023-01-25T13:41:18.178Z,10.10
2023-01-25T13:43:49.942Z,10.00
2023-01-25T13:46:23.594Z,10.00
2023-01-25T13:49:02.587Z,10.00
2023-01-25T13:51:37.849Z,10.00
2023-01-25T13:54:06.705Z,10.10
2023-01-25T13:56:37.502Z,10.00
2023-01-25T13:59:06.365Z,9.90
2023-01-25T14:01:37.967Z,10.00
2023-01-25T14:04:06.933Z,9.90
2023-01-25T14:06:40.779Z,9.90
2023-01-25T14:09:17.125Z,9.90
2023-01-25T14:11:51.230Z,9.90
2023-01-25T14:14:25.486Z,9.90
2023-01-25T14:19:41.207Z,9.80
2023-01-25T14:22:22.266Z,9.90
2023-01-25T14:25:04.795Z,9.90
2023-01-25T14:27:35.069Z,9.90
2023-01-25T14:30:05.825Z,9.90
2023-01-25T14:32:36.621Z,9.90
2023-01-25T14:35:53.768Z,9.90
2023-01-25T14:38:28.884Z,10.00
2023-01-25T14:41:04.333Z,9.90
2023-01-25T14:43:33.415Z,9.80
2023-01-25T14:46:02.232Z,9.80
2023-01-25T14:48:42.327Z,9.80
2023-01-25T14:51:18.453Z,9.80
2023-01-25T14:53:53.099Z,9.90
2023-01-25T14:56:35.004Z,9.80
2023-01-25T14:59:05.492Z,9.70
2023-01-25T15:01:39.177Z,9.70
2023-01-25T15:04:13.056Z,9.70
2023-01-25T15:06:49.422Z,9.70
2023-01-25T15:09:36.631Z,9.80
2023-01-25T15:12:07.253Z,9.80
2023-01-25T15:14:49.228Z,9.80
2023-01-25T15:17:40.649Z,9.70
2023-01-25T15:20:29.155Z,9.70
2023-01-25T15:23:00.480Z,9.80
2023-01-25T15:25:30.657Z,9.90
2023-01-25T15:27:59.416Z,10.00
2023-01-25T15:30:28.245Z,9.90
2023-01-25T15:32:57.567Z,9.90
2023-01-25T15:35:26.276Z,9.80
2023-01-25T15:37:54.976Z,9.90
2023-01-25T15:40:23.790Z,10.00
2023-01-25T15:42:55.701Z,9.90
2023-01-25T15:45:24.469Z,9.90
2023-01-25T15:47:53.168Z,9.90
2023-01-25T15:50:21.970Z,9.90
2023-01-25T15:52:50.699Z,9.70
2023-01-25T15:55:19.389Z,9.80
2023-01-25T15:57:48.361Z,9.80
2023-01-25T16:00:21.477Z,9.60
2023-01-25T16:02:50.438Z,9.30
2023-01-25T16:05:19.157Z,9.10
2023-01-25T16:07:47.866Z,9.00
2023-01-25T16:10:24.947Z,8.90
2023-01-25T16:12:53.678Z,8.90
2023-01-25T16:15:23.781Z,9.00
2023-01-25T16:17:52.510Z,8.90
2023-01-25T16:20:22.747Z,8.80
2023-01-25T16:22:51.435Z,8.80
2023-01-25T16:25:20.168Z,8.90
2023-01-25T16:27:48.926Z,8.80
2023-01-25T16:30:23.957Z,8.80
2023-01-25T16:32:54.227Z,8.90
2023-01-25T16:35:23.042Z,8.90
2023-01-25T16:37:52.093Z,9.00
2023-01-25T16:40:24.617Z,9.00
2023-01-25T16:42:53.755Z,9.10
2023-01-25T16:45:24.089Z,9.00
2023-01-25T16:47:54.186Z,9.00
2023-01-25T16:50:24.646Z,8.90
2023-01-25T16:52:54.920Z,8.90
2023-01-25T16:55:23.454Z,8.90
2023-01-25T16:57:52.892Z,9.00
2023-01-25T17:00:22.476Z,9.00
2023-01-25T17:02:59.250Z,9.00
2023-01-25T17:05:32.925Z,9.00
2023-01-25T17:08:01.648Z,9.10
2023-01-25T17:10:34.796Z,9.10
2023-01-25T17:13:03.530Z,9.20
2023-01-25T17:15:32.343Z,9.30
2023-01-25T17:18:01.118Z,9.20
2023-01-25T17:20:31.287Z,9.30
2023-01-25T17:23:00.027Z,9.30
2023-01-25T17:25:32.624Z,9.30
2023-01-25T17:28:01.344Z,9.30
2023-01-25T17:30:30.152Z,9.30
2023-01-25T17:32:58.857Z,9.20
2023-01-25T17:35:27.598Z,9.20
2023-01-25T17:37:57.680Z,9.20
2023-01-25T17:40:26.564Z,9.30
2023-01-25T17:42:55.217Z,9.40
2023-01-25T17:45:23.945Z,9.40
2023-01-25T17:47:52.806Z,9.40
2023-01-25T17:50:21.487Z,9.40
2023-01-25T17:52:50.256Z,9.40
2023-01-25T17:55:20.308Z,9.30
2023-01-25T17:57:51.246Z,9.30
2023-01-25T18:00:20.897Z,9.30
2023-01-25T18:02:49.719Z,9.30
2023-01-25T18:05:18.799Z,9.20
2023-01-25T18:07:47.602Z,9.30
2023-01-25T18:10:16.786Z,9.30
2023-01-25T18:13:03.646Z,9.30
2023-01-25T18:15:33.627Z,9.40
2023-01-25T18:18:02.440Z,9.40
2023-01-25T18:20:31.624Z,9.40
2023-01-25T18:23:00.359Z,9.20
2023-01-25T18:25:33.429Z,9.20
2023-01-25T18:28:03.819Z,9.20
2023-01-25T18:30:36.981Z,9.30
2023-01-25T18:33:06.656Z,9.20
2023-01-25T18:35:35.452Z,9.20
2023-01-25T18:38:04.177Z,9.20
2023-01-25T18:40:32.824Z,9.30
2023-01-25T18:43:01.622Z,9.30
2023-01-25T18:45:31.723Z,9.30
2023-01-25T18:48:01.391Z,9.20
2023-01-25T18:50:31.172Z,9.10
2023-01-25T18:52:59.864Z,9.10
2023-01-25T18:55:28.655Z,9.20
2023-01-25T18:58:04.019Z,9.20
2023-01-25T19:00:35.297Z,9.30
2023-01-25T19:03:04.080Z,9.20
2023-01-25T19:05:32.864Z,9.30
2023-01-25T19:08:01.609Z,9.30
2023-01-25T19:10:30.420Z,9.30
2023-01-25T19:12:59.133Z,9.20
2023-01-25T19:15:27.853Z,9.30
2023-01-25T19:17:57.989Z,9.40
2023-01-25T19:20:28.691Z,9.50
2023-01-25T19:22:57.322Z,9.40
2023-01-25T19:25:26.075Z,9.40
2023-01-25T19:27:54.771Z,9.40
2023-01-25T19:30:23.659Z,9.40
2023-01-25T19:32:52.333Z,9.20
2023-01-25T19:35:22.431Z,9.20
2023-01-25T19:37:51.144Z,9.20
2023-01-25T19:40:20.502Z,9.20
2023-01-25T19:42:49.215Z,9.20
2023-01-25T19:45:18.098Z,9.20
2023-01-25T19:47:46.814Z,9.20
2023-01-25T19:50:15.738Z,9.20
2023-01-25T19:52:45.962Z,9.20
2023-01-25T19:55:14.731Z,9.20
2023-01-25T19:57:43.487Z,9.20
2023-01-25T20:00:13.584Z,9.20
2023-01-25T20:02:42.876Z,9.30
2023-01-25T20:05:12.172Z,9.30
2023-01-25T20:07:42.416Z,9.20
2023-01-25T20:10:13.543Z,9.30
2023-01-25T20:12:42.327Z,9.30
2023-01-25T20:15:14.233Z,9.30
2023-01-25T20:17:43.563Z,9.30
2023-01-25T20:20:13.150Z,9.30
2023-01-25T20:22:41.926Z,9.30
2023-01-25T20:25:12.396Z,9.10
2023-01-25T20:27:41.303Z,9.20
2023-01-25T20:30:11.099Z,9.10
2023-01-25T20:32:39.814Z,9.00
2023-01-25T20:35:09.717Z,9.00
2023-01-25T20:37:38.737Z,9.00
2023-01-25T20:40:08.717Z,9.00
2023-01-25T20:42:38.810Z,9.00
2023-01-25T20:45:09.213Z,9.00
2023-01-25T20:47:38.015Z,8.90
2023-01-25T20:50:07.607Z,8.90
2023-01-25T20:52:36.303Z,8.80
2023-01-25T20:55:05.401Z,8.80
2023-01-25T20:57:34.100Z,8.80
2023-01-25T21:00:04.730Z,8.70
2023-01-25T21:02:33.540Z,8.70
2023-01-25T21:05:02.410Z,8.70
2023-01-25T21:07:31.186Z,8.80
2023-01-25T21:10:00.055Z,8.70
2023-01-25T21:12:31.467Z,8.80
2023-01-25T21:15:00.266Z,8.80
2023-01-25T21:17:30.887Z,8.80
2023-01-25T21:19:59.631Z,8.80
2023-01-25T21:22:30.092Z,8.80
2023-01-25T21:24:58.830Z,8.80
2023-01-25T21:27:29.743Z,8.80
2023-01-25T21:29:58.462Z,8.90
2023-01-25T21:32:27.198Z,8.90
2023-01-25T21:34:57.319Z,8.80
2023-01-25T21:37:25.961Z,8.80
2023-01-25T21:39:54.650Z,8.70
2023-01-25T21:42:23.316Z,8.70
2023-01-25T21:45:09.514Z,8.70
2023-01-25T21:47:38.474Z,8.60
2023-01-25T21:50:28.554Z,8.50
2023-01-25T21:52:57.218Z,8.60
2023-01-25T21:55:25.974Z,8.60
2023-01-25T21:57:54.656Z,8.60
2023-01-25T22:00:23.603Z,8.60
2023-01-25T22:02:52.790Z,8.60
2023-01-25T22:05:22.996Z,8.60
2023-01-25T22:07:51.730Z,8.60
2023-01-25T22:10:20.558Z,8.50
2023-01-25T22:12:51.543Z,8.50
2023-01-25T22:15:20.236Z,8.50
2023-01-25T22:17:48.884Z,8.60
2023-01-25T22:20:18.105Z,8.60
2023-01-25T22:22:48.971Z,8.60
2023-01-25T22:25:17.793Z,8.60
2023-01-25T22:27:51.736Z,8.60
2023-01-25T22:30:20.429Z,8.60
2023-01-25T22:32:49.135Z,8.70
2023-01-25T22:35:17.954Z,8.70
2023-01-25T22:37:48.096Z,8.60
2023-01-25T22:40:17.036Z,8.60
2023-01-25T22:42:45.706Z,8.60
2023-01-25T22:45:14.516Z,8.60
2023-01-25T22:47:44.591Z,8.60
2023-01-25T22:50:13.698Z,8.60
2023-01-25T22:52:42.575Z,8.60
2023-01-25T22:55:12.868Z,8.50
2023-01-25T22:57:41.528Z,8.60
2023-01-25T23:00:11.827Z,8.70
2023-01-25T23:02:40.776Z,8.60
2023-01-25T23:05:09.885Z,8.60
2023-01-25T23:07:38.656Z,8.60
2023-01-25T23:10:08.566Z,8.60
2023-01-25T23:12:38.852Z,8.60
2023-01-25T23:15:17.298Z,8.50
2023-01-25T23:18:03.793Z,8.60
2023-01-25T23:20:32.626Z,8.60
2023-01-25T23:23:01.362Z,8.60
2023-01-25T23:25:31.142Z,8.50
2023-01-25T23:28:01.272Z,8.40
2023-01-25T23:30:29.986Z,8.40
2023-01-25T23:32:59.258Z,8.30
2023-01-25T23:35:28.065Z,8.40
2023-01-25T23:37:56.754Z,8.30
2023-01-25T23:40:25.737Z,8.30
2023-01-25T23:42:54.529Z,8.40
2023-01-25T23:45:24.602Z,8.30
2023-01-25T23:47:53.266Z,8.20
2023-01-25T23:50:22.000Z,8.30
2023-01-25T23:52:50.672Z,8.30
2023-01-25T23:55:19.293Z,8.30
2023-01-25T23:57:48.001Z,8.20
